New Orleans NAS, Louisiana
Current Conditions -  °F | °C
As of 1:55 PM on Friday 21 Nov 2014 (Local Time) from KNBG Reporting Station
Scattered Clouds Scattered Clouds  
Wind Chill: 21°   Ceiling: Unl
Heat Index: 21°   Visibility: 10mi
Dew Point:   Wind: 17mph
Humidity: 42%   Direction: 100°E
Pressure: 30.23"   Gusts: NA
Location:  29.83°N, 90.02°W
Report Text: KNBG 211955Z 10015KT 10SM FEW020 FEW050 SCT250 21/08 A3023 RMK AO2 SLP237 T02110078 $
Loading
Personal Weather Stations






























Interactive Weather Map New forecast layout! Learn more

10-Day Weather Forecast

Advertisements
Track Severe Weather on mobile